Time;durP1;ratioP1;P1;durP2;ratioP2;P2;SDS_P1;SDS_P2;PMS_P1;PMS_P2;Temp;Humidity;BMP_temperature;BMP_pressure;BME280_temperature;BME280_humidity;BME280_pressure;Samples;Min_cycle;Max_cycle;Signal;HPM_P1;HPM_P2
2022/12/20 05:32:53;;;;;;;;;2.00;2.00;;;;;;;;4995836;28;46037;-70
2022/12/20 05:35:18;;;;;;;;;3.67;3.67;;;;;;;;4992708;28;45375;-69
2022/12/20 05:37:44;;;;;;;;;2.00;2.00;;;;;;;;4985312;28;45389;-70
2022/12/20 05:40:09;;;;;;;;;3.00;1.67;;;;;;;;4994386;28;45351;-70
2022/12/20 05:42:35;;;;;;;;;3.00;3.00;;;;;;;;4995816;28;45234;-69
2022/12/20 05:45:00;;;;;;;;;4.00;3.00;;;;;;;;4995258;28;45388;-70
2022/12/20 05:47:26;;;;;;;;;4.00;2.00;;;;;;;;4999403;28;45463;-70
2022/12/20 05:49:51;;;;;;;;;3.00;3.00;;;;;;;;4981585;28;45828;-70
2022/12/20 05:52:16;;;;;;;;;3.67;2.00;;;;;;;;5000581;28;45319;-69
2022/12/20 05:54:41;;;;;;;;;2.00;2.00;;;;;;;;4999728;28;45494;-70
2022/12/20 05:57:06;;;;;;;;;4.00;1.33;;;;;;;;4999790;28;45482;-70
2022/12/20 05:59:31;;;;;;;;;2.00;2.00;;;;;;;;4999847;28;45439;-69
2022/12/20 06:01:57;;;;;;;;;3.00;3.00;;;;;;;;4999366;28;45315;-70
2022/12/20 06:04:22;;;;;;;;;3.00;2.00;;;;;;;;4999197;28;45462;-70
2022/12/20 06:06:47;;;;;;;;;3.00;2.00;;;;;;;;4998647;28;45442;-70
2022/12/20 06:09:12;;;;;;;;;3.00;3.00;;;;;;;;4998683;28;45332;-69
2022/12/20 06:11:38;;;;;;;;;1.00;1.00;;;;;;;;4999657;28;45291;-69
2022/12/20 06:14:03;;;;;;;;;2.67;2.67;;;;;;;;4998649;28;45554;-69
2022/12/20 06:16:28;;;;;;;;;5.00;3.00;;;;;;;;4999325;28;45439;-69
2022/12/20 06:18:53;;;;;;;;;5.00;2.00;;;;;;;;4997474;28;45301;-69
2022/12/20 06:21:18;;;;;;;;;3.00;1.00;;;;;;;;4998713;28;45455;-70
2022/12/20 06:23:44;;;;;;;;;3.00;3.00;;;;;;;;4998467;28;45456;-69
2022/12/20 06:26:09;;;;;;;;;5.67;3.00;;;;;;;;4997560;28;46765;-70
2022/12/20 06:28:41;;;;;;;;;2.00;2.00;;;;;;;;4998809;28;45327;-69
2022/12/20 06:34:09;;;;;;;;;1.33;1.33;;;;;;;;4996460;28;45510;-69
2022/12/20 06:36:34;;;;;;;;;3.00;2.00;;;;;;;;4991957;28;45320;-70
2022/12/20 06:38:59;;;;;;;;;2.00;2.00;;;;;;;;4990056;28;45337;-70
2022/12/20 06:41:24;;;;;;;;;4.33;3.00;;;;;;;;4991008;28;45279;-69
2022/12/20 06:43:50;;;;;;;;;2.00;2.00;;;;;;;;4986880;28;46330;-69
2022/12/20 06:46:15;;;;;;;;;2.33;2.33;;;;;;;;4991665;28;45609;-69
2022/12/20 06:48:40;;;;;;;;;2.00;2.00;;;;;;;;4985117;28;45254;-69
2022/12/20 06:51:05;;;;;;;;;4.00;3.00;;;;;;;;4989873;28;45163;-69
2022/12/20 06:53:31;;;;;;;;;3.00;2.00;;;;;;;;4998293;28;45481;-69
2022/12/20 06:55:56;;;;;;;;;3.00;3.00;;;;;;;;4999461;28;45725;-69
2022/12/20 06:58:21;;;;;;;;;3.00;3.00;;;;;;;;4999369;28;45818;-69
2022/12/20 07:00:46;;;;;;;;;2.33;2.00;;;;;;;;4999562;28;45483;-69
2022/12/20 07:03:12;;;;;;;;;2.00;2.00;;;;;;;;4999084;28;46176;-69
2022/12/20 07:05:37;;;;;;;;;3.00;3.00;;;;;;;;4981771;28;45847;-69
2022/12/20 07:08:03;;;;;;;;;2.33;2.33;;;;;;;;4986527;28;45451;-71
2022/12/20 07:10:29;;;;;;;;;2.67;2.33;;;;;;;;4986016;28;45467;-70
2022/12/20 07:12:54;;;;;;;;;4.00;3.33;;;;;;;;4987414;28;45492;-70
2022/12/20 07:15:21;;;;;;;;;3.67;3.67;;;;;;;;4995271;28;45335;-71
2022/12/20 07:17:46;;;;;;;;;2.67;2.67;;;;;;;;4998047;28;45499;-69
2022/12/20 07:20:11;;;;;;;;;3.67;3.67;;;;;;;;4992787;28;45808;-69
2022/12/20 07:22:36;;;;;;;;;6.00;3.00;;;;;;;;4995938;28;46905;-70
2022/12/20 07:25:02;;;;;;;;;2.00;2.00;;;;;;;;4997157;28;45480;-69
2022/12/20 07:27:27;;;;;;;;;6.00;2.00;;;;;;;;4998127;28;45585;-70
2022/12/20 07:29:52;;;;;;;;;6.00;3.00;;;;;;;;4993866;28;45565;-70
2022/12/20 07:32:17;;;;;;;;;5.00;5.00;;;;;;;;4993328;28;45368;-72
2022/12/20 07:34:42;;;;;;;;;2.33;2.33;;;;;;;;4993781;28;45315;-72
2022/12/20 07:37:08;;;;;;;;;2.67;2.67;;;;;;;;4996222;28;45475;-71
2022/12/20 07:39:33;;;;;;;;;3.33;3.33;;;;;;;;4990740;28;45491;-83
2022/12/20 07:41:58;;;;;;;;;5.00;4.33;;;;;;;;4995019;28;45348;-81
2022/12/20 07:44:24;;;;;;;;;3.00;3.00;;;;;;;;4985440;28;45449;-82
2022/12/20 07:46:49;;;;;;;;;5.00;4.00;;;;;;;;4988698;28;46068;-79
2022/12/20 07:49:14;;;;;;;;;2.33;2.33;;;;;;;;4993568;28;45321;-79
2022/12/20 07:51:46;;;;;;;;;2.00;2.00;;;;;;;;4999534;28;46051;-81
2022/12/20 07:54:14;;;;;;;;;2.33;2.33;;;;;;;;4998470;28;45409;-84
2022/12/20 07:56:41;;;;;;;;;5.00;3.67;;;;;;;;4994507;28;45332;-84
2022/12/20 07:59:08;;;;;;;;;4.00;3.00;;;;;;;;4989049;28;45400;-85
2022/12/20 08:01:34;;;;;;;;;2.67;2.67;;;;;;;;4992967;28;46313;-86
2022/12/20 08:04:02;;;;;;;;;2.00;2.00;;;;;;;;5000842;28;46083;-85
2022/12/20 08:06:28;;;;;;;;;2.67;2.67;;;;;;;;5005223;28;45368;-85
2022/12/20 08:08:56;;;;;;;;;3.00;3.00;;;;;;;;5005593;28;46003;-85
2022/12/20 08:11:22;;;;;;;;;3.33;3.00;;;;;;;;5004508;28;46657;-83
2022/12/20 08:13:48;;;;;;;;;4.00;2.00;;;;;;;;4990199;28;45495;-71
2022/12/20 08:16:14;;;;;;;;;3.67;2.33;;;;;;;;5006610;28;45530;-68
2022/12/20 08:18:39;;;;;;;;;2.00;1.00;;;;;;;;5000447;28;45492;-68
2022/12/20 08:21:04;;;;;;;;;4.00;3.00;;;;;;;;5012166;28;46026;-68
2022/12/20 08:23:29;;;;;;;;;4.00;2.00;;;;;;;;5007469;28;45600;-69
2022/12/20 08:25:54;;;;;;;;;3.67;3.00;;;;;;;;5003003;28;45357;-68
2022/12/20 08:28:20;;;;;;;;;5.00;3.00;;;;;;;;5000113;28;45456;-67
2022/12/20 08:30:45;;;;;;;;;2.00;2.00;;;;;;;;5006263;28;46267;-68
2022/12/20 08:33:10;;;;;;;;;3.00;3.00;;;;;;;;5013753;28;45399;-68
2022/12/20 08:35:35;;;;;;;;;4.00;3.00;;;;;;;;5001601;28;45511;-68
2022/12/20 08:38:01;;;;;;;;;2.00;2.00;;;;;;;;5000765;28;45591;-68
2022/12/20 08:40:26;;;;;;;;;3.67;2.00;;;;;;;;5000725;28;46235;-68
2022/12/20 08:42:51;;;;;;;;;4.33;2.67;;;;;;;;4993866;28;45388;-67
2022/12/20 08:45:18;;;;;;;;;3.67;2.00;;;;;;;;4990402;28;45332;-68
2022/12/20 08:47:43;;;;;;;;;4.00;2.00;;;;;;;;4985127;28;45647;-68
2022/12/20 08:50:08;;;;;;;;;2.67;2.67;;;;;;;;5000263;28;46337;-69
2022/12/20 08:52:34;;;;;;;;;4.00;2.33;;;;;;;;5000682;28;45465;-67
2022/12/20 08:54:59;;;;;;;;;2.00;2.00;;;;;;;;4995983;28;45392;-67
2022/12/20 08:57:24;;;;;;;;;3.00;3.00;;;;;;;;4998416;28;45460;-67
2022/12/20 08:59:49;;;;;;;;;4.00;4.00;;;;;;;;5002811;28;46185;-67
2022/12/20 09:02:14;;;;;;;;;4.00;3.00;;;;;;;;5020353;28;45328;-68
2022/12/20 09:04:40;;;;;;;;;4.00;4.00;;;;;;;;5000847;28;45312;-67
2022/12/20 09:07:05;;;;;;;;;3.33;3.00;;;;;;;;4998754;28;45343;-67
2022/12/20 09:09:30;;;;;;;;;3.33;3.00;;;;;;;;4986700;28;45569;-67
2022/12/20 09:11:56;;;;;;;;;2.33;2.00;;;;;;;;5005675;28;45134;-67
2022/12/20 09:14:22;;;;;;;;;3.00;3.00;;;;;;;;5000384;28;45924;-68
2022/12/20 09:16:48;;;;;;;;;6.00;4.00;;;;;;;;5012004;28;45375;-69
2022/12/20 09:19:15;;;;;;;;;2.00;2.00;;;;;;;;5004253;28;46180;-68
2022/12/20 09:21:40;;;;;;;;;3.00;3.00;;;;;;;;5008072;28;45306;-68
2022/12/20 09:24:06;;;;;;;;;3.00;3.00;;;;;;;;4997151;28;45589;-68
2022/12/20 09:26:31;;;;;;;;;2.00;2.00;;;;;;;;5002288;28;45502;-67
2022/12/20 09:28:56;;;;;;;;;5.00;3.00;;;;;;;;4998375;28;45424;-67
2022/12/20 09:31:23;;;;;;;;;3.00;1.67;;;;;;;;5008326;28;45454;-68
2022/12/20 09:33:48;;;;;;;;;4.00;3.00;;;;;;;;4999838;28;45369;-67
2022/12/20 09:36:16;;;;;;;;;9.33;7.33;;;;;;;;5000041;28;45492;-67
2022/12/20 09:38:41;;;;;;;;;2.67;2.33;;;;;;;;4999226;28;46341;-68
2022/12/20 09:41:14;;;;;;;;;3.33;3.33;;;;;;;;4996982;28;45508;-68
2022/12/20 09:43:40;;;;;;;;;4.67;4.67;;;;;;;;5002681;28;45348;-68
2022/12/20 09:46:06;;;;;;;;;2.00;2.00;;;;;;;;5000616;28;45492;-69
2022/12/20 09:48:32;;;;;;;;;5.00;3.00;;;;;;;;4998604;28;46849;-68
2022/12/20 09:51:16;;;;;;;;;3.00;3.00;;;;;;;;4997930;28;45674;-68
2022/12/20 09:53:50;;;;;;;;;3.33;3.33;;;;;;;;4989959;28;45874;-69
2022/12/20 09:56:21;;;;;;;;;3.00;3.00;;;;;;;;5001375;28;45225;-68
2022/12/20 09:58:46;;;;;;;;;4.00;4.00;;;;;;;;4996102;28;46389;-69
2022/12/20 10:01:23;;;;;;;;;4.67;3.00;;;;;;;;4999726;28;45217;-69
2022/12/20 10:03:48;;;;;;;;;3.00;3.00;;;;;;;;4999782;28;45443;-68
2022/12/20 10:06:28;;;;;;;;;4.67;3.67;;;;;;;;4999974;28;45298;-69
2022/12/20 10:08:56;;;;;;;;;5.00;5.00;;;;;;;;4996402;28;47204;-68
2022/12/20 10:11:36;;;;;;;;;4.00;4.00;;;;;;;;5000268;28;45277;-68
2022/12/20 10:14:04;;;;;;;;;5.00;4.00;;;;;;;;4996563;28;46554;-69
2022/12/20 10:16:45;;;;;;;;;4.00;4.00;;;;;;;;5000285;28;45428;-68
2022/12/20 10:19:46;;;;;;;;;5.00;3.00;;;;;;;;4996993;28;46521;-68
2022/12/20 10:22:32;;;;;;;;;4.00;4.00;;;;;;;;4901778;28;45670;-68
2022/12/20 10:25:17;;;;;;;;;4.67;4.67;;;;;;;;4990432;28;45587;-68
2022/12/20 10:27:43;;;;;;;;;3.00;3.00;;;;;;;;4999993;28;45221;-69
2022/12/20 10:30:16;;;;;;;;;5.00;3.00;;;;;;;;4993731;28;45608;-69
2022/12/20 10:32:44;;;;;;;;;2.00;2.00;;;;;;;;4994549;28;45574;-69
2022/12/20 10:35:09;;;;;;;;;5.00;5.00;;;;;;;;4996093;28;45287;-66
2022/12/20 10:37:35;;;;;;;;;6.00;6.00;;;;;;;;4997119;28;45738;-70
2022/12/20 10:40:00;;;;;;;;;3.67;3.67;;;;;;;;4997016;28;46256;-68
2022/12/20 10:42:30;;;;;;;;;4.00;4.00;;;;;;;;4998791;28;45442;-69
2022/12/20 10:44:56;;;;;;;;;3.00;3.00;;;;;;;;4997493;28;45467;-69
2022/12/20 10:47:35;;;;;;;;;4.00;4.00;;;;;;;;4998383;28;45355;-68
2022/12/20 10:50:08;;;;;;;;;5.00;5.00;;;;;;;;4993051;28;46085;-68
2022/12/20 10:52:33;;;;;;;;;5.33;5.00;;;;;;;;4995827;28;45249;-68
2022/12/20 10:54:58;;;;;;;;;7.00;4.00;;;;;;;;4991305;28;45364;-69
2022/12/20 10:57:28;;;;;;;;;4.67;4.67;;;;;;;;4998136;28;45465;-69
2022/12/20 10:59:54;;;;;;;;;5.00;5.00;;;;;;;;4996660;28;45599;-68
2022/12/20 11:02:28;;;;;;;;;5.00;5.00;;;;;;;;4998752;28;45504;-68
2022/12/20 11:05:16;;;;;;;;;3.33;3.33;;;;;;;;4997795;28;45840;-68
2022/12/20 11:07:50;;;;;;;;;6.33;4.00;;;;;;;;4976333;28;45278;-68
2022/12/20 11:10:17;;;;;;;;;6.00;5.33;;;;;;;;4993918;28;45415;-68
2022/12/20 11:12:56;;;;;;;;;6.33;4.33;;;;;;;;4997192;28;45780;-69
2022/12/20 11:15:23;;;;;;;;;5.33;4.00;;;;;;;;4994894;28;45368;-69
2022/12/20 11:17:55;;;;;;;;;5.67;4.33;;;;;;;;4997318;28;45485;-68
2022/12/20 11:20:39;;;;;;;;;6.67;4.00;;;;;;;;5000274;28;45738;-68
2022/12/20 11:23:23;;;;;;;;;5.00;3.67;;;;;;;;4990779;28;45434;-69
2022/12/20 11:26:03;;;;;;;;;5.00;5.00;;;;;;;;4995851;28;45479;-67
2022/12/20 11:28:31;;;;;;;;;6.33;6.33;;;;;;;;5001377;28;45552;-68
2022/12/20 11:31:26;;;;;;;;;5.00;5.00;;;;;;;;4996731;28;46251;-68
2022/12/20 11:33:54;;;;;;;;;4.67;4.67;;;;;;;;4943087;28;45676;-68
2022/12/20 11:36:37;;;;;;;;;5.00;5.00;;;;;;;;5012444;28;45287;-69
2022/12/20 11:39:17;;;;;;;;;6.33;5.00;;;;;;;;4997408;28;45655;-68
2022/12/20 11:41:50;;;;;;;;;4.67;4.00;;;;;;;;4991024;28;45428;-68
2022/12/20 11:44:21;;;;;;;;;5.33;4.33;;;;;;;;4993325;28;45391;-68
2022/12/20 11:47:05;;;;;;;;;4.33;4.33;;;;;;;;4990594;28;45533;-68
2022/12/20 11:49:57;;;;;;;;;4.00;4.00;;;;;;;;4996643;28;45297;-67
2022/12/20 11:52:32;;;;;;;;;4.67;4.67;;;;;;;;4975759;28;46402;-68
2022/12/20 11:55:23;;;;;;;;;6.00;5.00;;;;;;;;4991576;28;45344;-68
2022/12/20 11:58:04;;;;;;;;;6.67;5.67;;;;;;;;4989333;28;45372;-68
2022/12/20 12:00:31;;;;;;;;;6.67;4.00;;;;;;;;4984273;28;45359;-68
2022/12/20 12:03:00;;;;;;;;;4.00;4.00;;;;;;;;4991758;28;45472;-67
2022/12/20 12:05:28;;;;;;;;;9.00;7.33;;;;;;;;4990198;28;45326;-68
2022/12/20 12:08:05;;;;;;;;;7.33;6.00;;;;;;;;4979349;28;45467;-66
2022/12/20 12:10:33;;;;;;;;;8.00;6.67;;;;;;;;4996253;28;45583;-67
2022/12/20 12:13:11;;;;;;;;;6.00;6.00;;;;;;;;4996027;28;45341;-68
2022/12/20 12:15:41;;;;;;;;;7.00;6.67;;;;;;;;4997024;28;45573;-67
2022/12/20 12:18:09;;;;;;;;;5.00;5.00;;;;;;;;5000311;28;45448;-67
2022/12/20 12:20:34;;;;;;;;;6.00;6.00;;;;;;;;4982661;28;45352;-68
2022/12/20 12:23:04;;;;;;;;;5.33;5.33;;;;;;;;5003068;28;46089;-68
2022/12/20 12:25:30;;;;;;;;;6.33;5.00;;;;;;;;4990512;28;45580;-68
2022/12/20 12:27:55;;;;;;;;;7.00;5.67;;;;;;;;5004866;28;45431;-68
2022/12/20 12:30:21;;;;;;;;;4.67;4.67;;;;;;;;5020167;28;45447;-67
2022/12/20 12:32:46;;;;;;;;;4.67;4.67;;;;;;;;5000149;28;46180;-66
2022/12/20 12:35:27;;;;;;;;;8.00;5.00;;;;;;;;5009936;28;45434;-68
2022/12/20 12:37:58;;;;;;;;;6.67;5.00;;;;;;;;5004621;28;45306;-68
2022/12/20 12:40:26;;;;;;;;;6.00;5.33;;;;;;;;5006957;28;45681;-68
2022/12/20 12:42:54;;;;;;;;;8.00;7.00;;;;;;;;5009033;28;46304;-68
2022/12/20 12:45:34;;;;;;;;;5.00;5.00;;;;;;;;4989110;28;45420;-68
2022/12/20 12:48:07;;;;;;;;;5.00;5.00;;;;;;;;5005162;28;45412;-68
2022/12/20 12:50:36;;;;;;;;;10.33;7.00;;;;;;;;4981342;28;45607;-68
2022/12/20 12:53:06;;;;;;;;;6.33;6.00;;;;;;;;4997423;28;46308;-70
2022/12/20 12:55:42;;;;;;;;;8.00;6.00;;;;;;;;5002898;28;45449;-67
2022/12/20 12:58:23;;;;;;;;;10.00;6.67;;;;;;;;4998108;28;45389;-68
2022/12/20 13:00:54;;;;;;;;;7.00;5.00;;;;;;;;4999594;28;45706;-67
2022/12/20 13:03:51;;;;;;;;;6.67;6.67;;;;;;;;5001205;28;45385;-67
2022/12/20 13:06:22;;;;;;;;;7.67;7.67;;;;;;;;4964548;28;45664;-68
2022/12/20 13:08:57;;;;;;;;;8.00;7.00;;;;;;;;4984497;28;45421;-69
2022/12/20 13:11:30;;;;;;;;;8.00;7.00;;;;;;;;4981994;28;45433;-68
2022/12/20 13:14:14;;;;;;;;;7.33;7.33;;;;;;;;4999603;28;46679;-68
2022/12/20 13:16:40;;;;;;;;;8.00;6.33;;;;;;;;4992056;28;45391;-68
2022/12/20 13:19:13;;;;;;;;;6.00;5.00;;;;;;;;4998592;28;45450;-68
2022/12/20 13:21:39;;;;;;;;;6.00;5.00;;;;;;;;4998175;28;45780;-68
2022/12/20 13:24:23;;;;;;;;;7.00;5.00;;;;;;;;4998418;28;45538;-68
2022/12/20 13:26:51;;;;;;;;;7.67;5.67;;;;;;;;4998507;28;45719;-68
2022/12/20 13:29:34;;;;;;;;;9.00;6.67;;;;;;;;4996937;28;45408;-67
2022/12/20 13:32:00;;;;;;;;;6.00;6.00;;;;;;;;4996338;28;45529;-67
2022/12/20 13:34:44;;;;;;;;;5.67;5.67;;;;;;;;4998897;28;45423;-67
2022/12/20 13:37:48;;;;;;;;;6.00;5.00;;;;;;;;4998604;28;45840;-68
2022/12/20 13:40:18;;;;;;;;;6.33;5.33;;;;;;;;4993418;28;45470;-67
2022/12/20 13:42:44;;;;;;;;;6.00;6.00;;;;;;;;4994291;28;45452;-67
2022/12/20 13:45:12;;;;;;;;;6.00;5.00;;;;;;;;4991631;28;46306;-67
2022/12/20 13:47:45;;;;;;;;;9.33;6.33;;;;;;;;4992213;28;45802;-68
2022/12/20 13:50:22;;;;;;;;;6.33;5.67;;;;;;;;4996154;28;45753;-67
2022/12/20 13:52:47;;;;;;;;;8.00;8.00;;;;;;;;4998283;28;45551;-68
2022/12/20 13:55:41;;;;;;;;;6.00;6.00;;;;;;;;4974634;28;46430;-68
2022/12/20 13:58:18;;;;;;;;;6.67;5.67;;;;;;;;4982725;28;45397;-68
2022/12/20 14:00:44;;;;;;;;;7.33;5.00;;;;;;;;4984322;28;45572;-67
2022/12/20 14:03:29;;;;;;;;;5.00;5.00;;;;;;;;4985106;28;45491;-67
2022/12/20 14:06:02;;;;;;;;;5.33;5.33;;;;;;;;4990277;28;46493;-67
2022/12/20 14:08:34;;;;;;;;;6.00;5.00;;;;;;;;4989994;28;45511;-67
2022/12/20 14:11:10;;;;;;;;;6.33;5.00;;;;;;;;4988102;28;45466;-68
2022/12/20 14:13:35;;;;;;;;;7.67;7.00;;;;;;;;4986915;28;45465;-68
2022/12/20 14:16:09;;;;;;;;;4.33;4.00;;;;;;;;4993068;28;45534;-68
2022/12/20 14:18:34;;;;;;;;;9.33;6.00;;;;;;;;4991549;28;45456;-68
2022/12/20 14:21:04;;;;;;;;;6.00;6.00;;;;;;;;4998287;28;45225;-68
2022/12/20 14:23:50;;;;;;;;;6.00;6.00;;;;;;;;4997710;28;45360;-68
2022/12/20 14:26:21;;;;;;;;;5.67;4.00;;;;;;;;4998902;28;45340;-68
2022/12/20 14:28:54;;;;;;;;;5.00;5.00;;;;;;;;4997208;28;45350;-68
2022/12/20 14:31:22;;;;;;;;;6.67;5.67;;;;;;;;4998413;28;45245;-68
2022/12/20 14:33:47;;;;;;;;;5.33;5.33;;;;;;;;4997965;28;45392;-68
2022/12/20 14:36:15;;;;;;;;;3.33;3.00;;;;;;;;4997581;28;46118;-69
2022/12/20 14:38:42;;;;;;;;;7.33;6.00;;;;;;;;4998783;28;45344;-68
2022/12/20 14:41:26;;;;;;;;;5.67;5.67;;;;;;;;4998031;28;45342;-68
2022/12/20 14:43:55;;;;;;;;;8.67;8.67;;;;;;;;4998592;28;45392;-68
2022/12/20 14:46:21;;;;;;;;;8.00;6.33;;;;;;;;4998681;28;46236;-68
2022/12/20 14:48:47;;;;;;;;;6.33;6.33;;;;;;;;4997334;28;45547;-69
2022/12/20 14:51:18;;;;;;;;;11.00;7.33;;;;;;;;4982927;28;45472;-68
2022/12/20 14:53:44;;;;;;;;;8.00;7.00;;;;;;;;4997992;28;45266;-68
2022/12/20 14:56:14;;;;;;;;;5.00;5.00;;;;;;;;4996852;28;45412;-67
2022/12/20 14:58:39;;;;;;;;;7.00;5.33;;;;;;;;4996835;28;45769;-69
2022/12/20 15:01:13;;;;;;;;;5.00;5.00;;;;;;;;4995293;28;46024;-68
2022/12/20 15:03:47;;;;;;;;;5.00;5.00;;;;;;;;4996762;28;45677;-68
2022/12/20 15:06:30;;;;;;;;;6.00;4.00;;;;;;;;4997555;28;46268;-68
2022/12/20 15:08:55;;;;;;;;;8.00;6.67;;;;;;;;4997546;28;45378;-68
2022/12/20 15:11:21;;;;;;;;;5.33;5.33;;;;;;;;4997965;28;45470;-68
2022/12/20 15:13:48;;;;;;;;;6.00;4.00;;;;;;;;4997620;28;45757;-68
2022/12/20 15:16:21;;;;;;;;;4.67;4.00;;;;;;;;4998449;28;47149;-68
2022/12/20 15:18:46;;;;;;;;;8.00;7.00;;;;;;;;4998653;28;45322;-68
2022/12/20 15:21:14;;;;;;;;;6.67;6.00;;;;;;;;4999520;28;45741;-68
2022/12/20 15:23:52;;;;;;;;;7.33;6.00;;;;;;;;4999124;28;45360;-68
2022/12/20 15:26:19;;;;;;;;;6.33;6.33;;;;;;;;4997954;28;45358;-68
2022/12/20 15:28:44;;;;;;;;;11.00;7.00;;;;;;;;4998231;28;45277;-68
2022/12/20 15:31:10;;;;;;;;;5.33;5.33;;;;;;;;4998468;28;45353;-68
2022/12/20 15:33:37;;;;;;;;;6.00;5.33;;;;;;;;4998992;28;45328;-69
2022/12/20 15:36:03;;;;;;;;;3.00;3.00;;;;;;;;4998410;28;46227;-68
2022/12/20 15:38:28;;;;;;;;;6.33;6.33;;;;;;;;4998001;28;45334;-68
2022/12/20 15:40:55;;;;;;;;;5.00;5.00;;;;;;;;4998622;28;45312;-68
2022/12/20 15:43:22;;;;;;;;;4.33;4.33;;;;;;;;4981353;28;45597;-68
2022/12/20 15:45:49;;;;;;;;;6.00;4.00;;;;;;;;4998090;28;45995;-68
2022/12/20 15:48:16;;;;;;;;;5.00;5.00;;;;;;;;4998610;28;45314;-68
2022/12/20 15:50:52;;;;;;;;;8.33;7.00;;;;;;;;4998251;28;45203;-68
2022/12/20 15:53:21;;;;;;;;;5.67;5.00;;;;;;;;5001603;28;45319;-68
2022/12/20 15:55:47;;;;;;;;;8.33;7.00;;;;;;;;5001323;28;45336;-68
2022/12/20 15:58:12;;;;;;;;;7.67;6.00;;;;;;;;5001791;28;45233;-68
2022/12/20 16:00:40;;;;;;;;;6.67;6.67;;;;;;;;5002086;28;45227;-68
2022/12/20 16:03:07;;;;;;;;;7.67;6.00;;;;;;;;4995735;28;45581;-68
2022/12/20 16:05:32;;;;;;;;;6.00;6.00;;;;;;;;5001860;28;45474;-69
2022/12/20 16:07:58;;;;;;;;;6.67;6.00;;;;;;;;5000965;28;45399;-69
2022/12/20 16:10:23;;;;;;;;;7.00;6.33;;;;;;;;5002121;28;45435;-69
2022/12/20 16:12:48;;;;;;;;;10.00;8.00;;;;;;;;5000921;28;45375;-69
2022/12/20 16:15:19;;;;;;;;;7.00;7.00;;;;;;;;5001704;28;45474;-69
2022/12/20 16:17:44;;;;;;;;;8.33;8.33;;;;;;;;5001695;28;45249;-69
2022/12/20 16:20:10;;;;;;;;;7.00;7.00;;;;;;;;4999794;28;45613;-69
2022/12/20 16:22:35;;;;;;;;;6.00;6.00;;;;;;;;5000133;28;45544;-69
2022/12/20 16:25:00;;;;;;;;;6.67;5.00;;;;;;;;5001307;28;46126;-69
2022/12/20 16:27:25;;;;;;;;;8.67;8.67;;;;;;;;5000807;28;45435;-69
2022/12/20 16:29:51;;;;;;;;;11.67;10.67;;;;;;;;5002955;28;45208;-68
2022/12/20 16:32:17;;;;;;;;;10.67;10.67;;;;;;;;5001218;28;45566;-68
2022/12/20 16:34:43;;;;;;;;;10.00;10.00;;;;;;;;5000565;28;46107;-68
2022/12/20 16:37:10;;;;;;;;;7.67;7.00;;;;;;;;5000448;28;45567;-68
2022/12/20 16:39:35;;;;;;;;;9.00;9.00;;;;;;;;5000818;28;45276;-68
2022/12/20 16:42:00;;;;;;;;;9.00;7.00;;;;;;;;5000883;28;45279;-68
2022/12/20 16:44:26;;;;;;;;;17.00;11.33;;;;;;;;4998150;28;45567;-62
2022/12/20 16:46:51;;;;;;;;;8.33;8.00;;;;;;;;4990685;28;45510;-63
2022/12/20 16:49:16;;;;;;;;;8.33;6.67;;;;;;;;5000469;28;45286;-63
2022/12/20 16:51:43;;;;;;;;;11.33;8.33;;;;;;;;4995332;28;45540;-66
2022/12/20 16:54:11;;;;;;;;;10.00;8.33;;;;;;;;5000155;28;46311;-61
2022/12/20 16:56:37;;;;;;;;;16.00;13.33;;;;;;;;4999439;28;45808;-61
2022/12/20 16:59:02;;;;;;;;;10.00;10.00;;;;;;;;4995394;28;46695;-62
2022/12/20 17:01:30;;;;;;;;;13.00;8.67;;;;;;;;4996701;28;45625;-62
2022/12/20 17:03:55;;;;;;;;;9.33;9.33;;;;;;;;4999851;28;45468;-62
2022/12/20 17:06:20;;;;;;;;;9.67;8.67;;;;;;;;4997638;28;45317;-62
2022/12/20 17:08:46;;;;;;;;;9.67;9.00;;;;;;;;4999124;28;45388;-61
2022/12/20 17:11:16;;;;;;;;;13.33;12.33;;;;;;;;5000042;28;45785;-62
2022/12/20 17:13:42;;;;;;;;;10.67;10.67;;;;;;;;4998982;28;46292;-62
2022/12/20 17:16:08;;;;;;;;;10.33;10.33;;;;;;;;4998897;28;45236;-62
2022/12/20 17:18:34;;;;;;;;;15.67;10.00;;;;;;;;5000899;28;45384;-62
2022/12/20 17:21:00;;;;;;;;;12.33;10.00;;;;;;;;4989158;28;45392;-61
2022/12/20 17:23:25;;;;;;;;;10.33;10.33;;;;;;;;4995987;28;45503;-62
2022/12/20 17:25:50;;;;;;;;;10.67;10.00;;;;;;;;4988883;28;45620;-62
2022/12/20 17:28:15;;;;;;;;;14.00;11.00;;;;;;;;4993451;28;45415;-62
2022/12/20 17:30:40;;;;;;;;;12.00;10.67;;;;;;;;4996802;28;45530;-62
2022/12/20 17:33:06;;;;;;;;;14.00;10.00;;;;;;;;4998030;28;45567;-63
2022/12/20 17:35:31;;;;;;;;;10.67;10.67;;;;;;;;4998845;28;45404;-62
2022/12/20 17:37:57;;;;;;;;;14.00;11.00;;;;;;;;4997793;28;46640;-63
2022/12/20 17:40:24;;;;;;;;;13.00;11.33;;;;;;;;4978913;28;45615;-63
2022/12/20 17:42:49;;;;;;;;;11.67;9.00;;;;;;;;4994898;28;46347;-63
2022/12/20 17:45:24;;;;;;;;;13.67;13.67;;;;;;;;4994609;28;46412;-63
2022/12/20 17:47:49;;;;;;;;;11.00;10.00;;;;;;;;4997557;28;45464;-63
2022/12/20 17:50:15;;;;;;;;;10.67;9.67;;;;;;;;4998597;28;45438;-63
2022/12/20 17:52:40;;;;;;;;;13.67;11.33;;;;;;;;4987270;28;45787;-64
2022/12/20 17:55:06;;;;;;;;;11.00;11.00;;;;;;;;4981153;28;46416;-64
2022/12/20 17:57:31;;;;;;;;;11.00;11.00;;;;;;;;4987103;28;45354;-64
2022/12/20 17:59:57;;;;;;;;;15.67;12.67;;;;;;;;4988446;28;45586;-64
2022/12/20 18:02:23;;;;;;;;;16.00;14.00;;;;;;;;4985806;28;46969;-65
2022/12/20 18:04:49;;;;;;;;;13.67;12.33;;;;;;;;4989988;28;45554;-65
2022/12/20 18:07:14;;;;;;;;;16.33;12.67;;;;;;;;4995215;28;45467;-64
2022/12/20 18:09:39;;;;;;;;;13.00;12.00;;;;;;;;4999102;28;45415;-63
2022/12/20 18:12:05;;;;;;;;;16.00;13.00;;;;;;;;4994073;28;46096;-63
2022/12/20 18:14:30;;;;;;;;;15.00;13.33;;;;;;;;4996841;28;45440;-64
2022/12/20 18:16:55;;;;;;;;;13.00;10.00;;;;;;;;4997804;28;45591;-65
2022/12/20 18:19:20;;;;;;;;;13.00;10.67;;;;;;;;4993203;28;45550;-64
2022/12/20 18:21:45;;;;;;;;;13.00;12.33;;;;;;;;5000986;28;46282;-64
2022/12/20 18:24:11;;;;;;;;;12.33;9.67;;;;;;;;4997304;28;45473;-64
2022/12/20 18:26:37;;;;;;;;;17.67;16.00;;;;;;;;4998528;28;45520;-64
2022/12/20 18:29:02;;;;;;;;;15.67;12.33;;;;;;;;4999019;28;45654;-64
2022/12/20 18:31:28;;;;;;;;;13.00;13.00;;;;;;;;4997643;28;46081;-64
2022/12/20 18:33:54;;;;;;;;;15.00;12.33;;;;;;;;4981606;28;46854;-64
2022/12/20 18:36:21;;;;;;;;;15.67;14.67;;;;;;;;4993646;28;45491;-65
2022/12/20 18:38:47;;;;;;;;;17.67;14.00;;;;;;;;4996305;28;45336;-64
2022/12/20 18:41:14;;;;;;;;;16.00;15.00;;;;;;;;4994804;28;46302;-68
2022/12/20 18:43:39;;;;;;;;;16.67;13.67;;;;;;;;4978774;28;45513;-64
2022/12/20 18:46:09;;;;;;;;;11.67;10.67;;;;;;;;4992939;28;45270;-64
2022/12/20 18:48:34;;;;;;;;;12.33;11.33;;;;;;;;5002563;28;46584;-64
2022/12/20 18:51:06;;;;;;;;;15.67;14.00;;;;;;;;4996708;28;46365;-70
2022/12/20 18:53:33;;;;;;;;;12.00;12.00;;;;;;;;4997395;28;45771;-67
2022/12/20 18:56:05;;;;;;;;;10.67;10.67;;;;;;;;4998186;28;45337;-68
2022/12/20 18:58:31;;;;;;;;;11.33;11.33;;;;;;;;4997108;28;45572;-67
2022/12/20 19:01:00;;;;;;;;;12.00;12.00;;;;;;;;4978401;28;47523;-67
2022/12/20 19:03:25;;;;;;;;;12.33;9.67;;;;;;;;4981178;28;46154;-68
2022/12/20 19:05:52;;;;;;;;;11.67;10.67;;;;;;;;4997605;28;46861;-68
2022/12/20 19:08:18;;;;;;;;;13.33;13.33;;;;;;;;4996696;28;45444;-68
2022/12/20 19:10:43;;;;;;;;;13.00;13.00;;;;;;;;4997441;28;46015;-68
2022/12/20 19:13:08;;;;;;;;;11.00;10.33;;;;;;;;4995824;28;45551;-68
2022/12/20 19:15:33;;;;;;;;;17.00;15.00;;;;;;;;4998117;28;45563;-67
2022/12/20 19:17:58;;;;;;;;;18.67;14.67;;;;;;;;5002140;28;45451;-67
2022/12/20 19:20:24;;;;;;;;;15.67;15.67;;;;;;;;5007920;28;47395;-69
2022/12/20 19:22:51;;;;;;;;;20.67;18.33;;;;;;;;4998253;28;45472;-69
2022/12/20 19:25:16;;;;;;;;;17.00;14.33;;;;;;;;4997106;28;45366;-69
2022/12/20 19:27:41;;;;;;;;;13.33;13.00;;;;;;;;4995948;28;45329;-69
2022/12/20 19:30:07;;;;;;;;;15.33;15.00;;;;;;;;4997710;28;46318;-68
2022/12/20 19:32:33;;;;;;;;;13.33;12.33;;;;;;;;4997920;28;45423;-68
2022/12/20 19:34:58;;;;;;;;;16.67;15.00;;;;;;;;4997100;28;45412;-69
2022/12/20 19:37:23;;;;;;;;;15.67;13.67;;;;;;;;4981756;28;45555;-69
2022/12/20 19:39:49;;;;;;;;;16.67;15.67;;;;;;;;4996744;28;46470;-68
2022/12/20 19:42:14;;;;;;;;;17.67;16.67;;;;;;;;4998448;28;45329;-69
2022/12/20 19:44:39;;;;;;;;;15.67;14.00;;;;;;;;4998643;28;45190;-70
2022/12/20 19:47:05;;;;;;;;;14.00;12.67;;;;;;;;4997920;28;45393;-68
2022/12/20 19:49:30;;;;;;;;;15.33;15.00;;;;;;;;4979878;28;47555;-66
2022/12/20 19:51:55;;;;;;;;;13.67;13.67;;;;;;;;4979987;28;45484;-68
2022/12/20 19:54:20;;;;;;;;;15.33;14.67;;;;;;;;4995038;28;45510;-67
2022/12/20 19:56:46;;;;;;;;;16.00;13.33;;;;;;;;4996312;28;45487;-67
2022/12/20 19:59:12;;;;;;;;;21.67;21.67;;;;;;;;4995261;28;45670;-68
2022/12/20 20:01:38;;;;;;;;;15.00;13.00;;;;;;;;4990881;28;45730;-68
2022/12/20 20:04:04;;;;;;;;;16.67;15.00;;;;;;;;4981150;28;45459;-67
2022/12/20 20:06:30;;;;;;;;;13.00;12.67;;;;;;;;4980513;28;45310;-68
2022/12/20 20:08:56;;;;;;;;;16.00;13.33;;;;;;;;4996196;28;46141;-67
2022/12/20 20:11:21;;;;;;;;;16.67;16.33;;;;;;;;4991898;28;45461;-67
2022/12/20 20:13:47;;;;;;;;;13.67;13.67;;;;;;;;4984952;28;45523;-68
2022/12/20 20:16:12;;;;;;;;;18.00;15.00;;;;;;;;4996903;28;45436;-68
2022/12/20 20:18:38;;;;;;;;;17.00;14.33;;;;;;;;4988983;28;45405;-68